Twodot, Montana
Current Conditions -  °F | °C
As of 3:54 AM on Friday 31 Oct 2014 (Local Time) from KLWT Reporting Station
Clear Clear  
Wind Chill: 39°   Ceiling: Unl
Heat Index: 45°   Visibility: 10mi
Dew Point: 31°   Wind: 12mph
Humidity: 58%   Direction: 120°ESE
Pressure: 30"   Gusts: NA
Location:  46.42°N, 110.07°W
Report Text: KLWT 310954Z AUTO 12010KT 10SM CLR 07/M01 A3000 RMK AO2 SLP152 T00721006
Loading
Personal Weather Stations






























Interactive Weather Map
Tropical Storm Tracking
New forecast layout! Learn more

10-Day Weather Forecast

Advertisements
Track Severe Weather on mobile